sensor_id;sensor_type;location;lat;lon;timestamp;P1;durP1;ratioP1;P2;durP2;ratioP2
7539;SDS011;3811;49.006;12.076;2022-12-13T00:01:08;19.13;;;11.40;;
7539;SDS011;3811;49.006;12.076;2022-12-13T00:03:35;19.48;;;10.05;;
7539;SDS011;3811;49.006;12.076;2022-12-13T00:06:03;18.75;;;10.23;;
7539;SDS011;3811;49.006;12.076;2022-12-13T00:08:30;20.13;;;10.93;;
7539;SDS011;3811;49.006;12.076;2022-12-13T00:10:58;21.67;;;10.95;;
7539;SDS011;3811;49.006;12.076;2022-12-13T00:13:26;16.90;;;10.73;;
7539;SDS011;3811;49.006;12.076;2022-12-13T00:15:54;19.65;;;10.85;;
7539;SDS011;3811;49.006;12.076;2022-12-13T00:18:22;16.98;;;10.35;;
7539;SDS011;3811;49.006;12.076;2022-12-13T00:20:49;17.17;;;11.63;;
7539;SDS011;3811;49.006;12.076;2022-12-13T00:23:17;21.27;;;11.00;;
7539;SDS011;3811;49.006;12.076;2022-12-13T00:25:44;21.85;;;11.43;;
7539;SDS011;3811;49.006;12.076;2022-12-13T00:28:11;17.55;;;10.90;;
7539;SDS011;3811;49.006;12.076;2022-12-13T00:30:40;19.75;;;11.70;;
7539;SDS011;3811;49.006;12.076;2022-12-13T00:33:08;23.52;;;11.80;;
7539;SDS011;3811;49.006;12.076;2022-12-13T00:35:38;18.70;;;11.27;;
7539;SDS011;3811;49.006;12.076;2022-12-13T00:38:05;17.27;;;10.73;;
7539;SDS011;3811;49.006;12.076;2022-12-13T00:40:33;25.80;;;10.98;;
7539;SDS011;3811;49.006;12.076;2022-12-13T00:43:00;19.42;;;10.82;;
7539;SDS011;3811;49.006;12.076;2022-12-13T00:45:27;16.77;;;9.93;;
7539;SDS011;3811;49.006;12.076;2022-12-13T00:47:56;18.33;;;10.15;;
7539;SDS011;3811;49.006;12.076;2022-12-13T00:50:23;20.58;;;11.10;;
7539;SDS011;3811;49.006;12.076;2022-12-13T00:52:51;19.90;;;10.93;;
7539;SDS011;3811;49.006;12.076;2022-12-13T00:55:18;19.38;;;11.55;;
7539;SDS011;3811;49.006;12.076;2022-12-13T00:57:45;18.23;;;11.00;;
7539;SDS011;3811;49.006;12.076;2022-12-13T01:00:13;21.13;;;11.60;;
7539;SDS011;3811;49.006;12.076;2022-12-13T01:02:40;16.52;;;9.43;;
7539;SDS011;3811;49.006;12.076;2022-12-13T01:05:09;19.02;;;11.88;;
7539;SDS011;3811;49.006;12.076;2022-12-13T01:07:36;17.92;;;10.60;;
7539;SDS011;3811;49.006;12.076;2022-12-13T01:10:04;16.08;;;10.35;;
7539;SDS011;3811;49.006;12.076;2022-12-13T01:12:32;15.80;;;9.63;;
7539;SDS011;3811;49.006;12.076;2022-12-13T01:15:01;17.77;;;10.45;;
7539;SDS011;3811;49.006;12.076;2022-12-13T01:17:29;19.23;;;10.40;;
7539;SDS011;3811;49.006;12.076;2022-12-13T01:19:56;19.25;;;10.57;;
7539;SDS011;3811;49.006;12.076;2022-12-13T01:22:25;24.30;;;11.40;;
7539;SDS011;3811;49.006;12.076;2022-12-13T01:24:52;19.13;;;10.57;;
7539;SDS011;3811;49.006;12.076;2022-12-13T01:27:19;18.20;;;10.43;;
7539;SDS011;3811;49.006;12.076;2022-12-13T01:29:47;18.33;;;10.52;;
7539;SDS011;3811;49.006;12.076;2022-12-13T01:32:14;18.80;;;10.40;;
7539;SDS011;3811;49.006;12.076;2022-12-13T01:34:41;17.13;;;10.23;;
7539;SDS011;3811;49.006;12.076;2022-12-13T01:37:08;20.02;;;10.48;;
7539;SDS011;3811;49.006;12.076;2022-12-13T01:39:37;22.48;;;11.65;;
7539;SDS011;3811;49.006;12.076;2022-12-13T01:42:04;18.15;;;10.57;;
7539;SDS011;3811;49.006;12.076;2022-12-13T01:47:18;21.60;;;10.38;;
7539;SDS011;3811;49.006;12.076;2022-12-13T01:49:48;17.02;;;9.98;;
7539;SDS011;3811;49.006;12.076;2022-12-13T01:52:16;18.38;;;9.57;;
7539;SDS011;3811;49.006;12.076;2022-12-13T01:54:45;19.90;;;10.30;;
7539;SDS011;3811;49.006;12.076;2022-12-13T01:57:14;22.90;;;10.70;;
7539;SDS011;3811;49.006;12.076;2022-12-13T01:59:45;15.82;;;10.32;;
7539;SDS011;3811;49.006;12.076;2022-12-13T02:02:14;18.48;;;10.30;;
7539;SDS011;3811;49.006;12.076;2022-12-13T02:04:43;17.55;;;9.77;;
7539;SDS011;3811;49.006;12.076;2022-12-13T02:07:16;18.58;;;11.15;;
7539;SDS011;3811;49.006;12.076;2022-12-13T02:09:45;17.13;;;10.18;;
7539;SDS011;3811;49.006;12.076;2022-12-13T02:12:13;19.55;;;10.35;;
7539;SDS011;3811;49.006;12.076;2022-12-13T02:14:40;16.92;;;10.25;;
7539;SDS011;3811;49.006;12.076;2022-12-13T02:17:09;19.70;;;10.32;;
7539;SDS011;3811;49.006;12.076;2022-12-13T02:19:49;16.30;;;10.57;;
7539;SDS011;3811;49.006;12.076;2022-12-13T02:22:29;17.95;;;11.02;;
7539;SDS011;3811;49.006;12.076;2022-12-13T02:25:05;17.05;;;10.23;;
7539;SDS011;3811;49.006;12.076;2022-12-13T02:27:42;20.23;;;11.20;;
7539;SDS011;3811;49.006;12.076;2022-12-13T02:33:11;18.17;;;11.93;;
7539;SDS011;3811;49.006;12.076;2022-12-13T02:35:45;22.92;;;13.15;;
7539;SDS011;3811;49.006;12.076;2022-12-13T02:38:18;27.02;;;16.08;;
7539;SDS011;3811;49.006;12.076;2022-12-13T02:40:52;31.23;;;19.27;;
7539;SDS011;3811;49.006;12.076;2022-12-13T02:43:21;25.60;;;17.05;;
7539;SDS011;3811;49.006;12.076;2022-12-13T02:45:50;28.25;;;17.00;;
7539;SDS011;3811;49.006;12.076;2022-12-13T02:48:23;28.08;;;17.48;;
7539;SDS011;3811;49.006;12.076;2022-12-13T02:50:51;26.38;;;15.52;;
7539;SDS011;3811;49.006;12.076;2022-12-13T02:53:19;26.73;;;13.93;;
7539;SDS011;3811;49.006;12.076;2022-12-13T02:55:48;21.05;;;14.10;;
7539;SDS011;3811;49.006;12.076;2022-12-13T02:58:17;22.52;;;12.10;;
7539;SDS011;3811;49.006;12.076;2022-12-13T03:00:49;16.67;;;11.15;;
7539;SDS011;3811;49.006;12.076;2022-12-13T03:03:21;18.38;;;10.55;;
7539;SDS011;3811;49.006;12.076;2022-12-13T03:06:00;19.08;;;10.50;;
7539;SDS011;3811;49.006;12.076;2022-12-13T03:08:53;18.52;;;10.20;;
7539;SDS011;3811;49.006;12.076;2022-12-13T03:11:23;16.35;;;10.27;;
7539;SDS011;3811;49.006;12.076;2022-12-13T03:17:28;17.10;;;10.25;;
7539;SDS011;3811;49.006;12.076;2022-12-13T03:20:00;17.52;;;10.80;;
7539;SDS011;3811;49.006;12.076;2022-12-13T03:22:28;18.83;;;10.15;;
7539;SDS011;3811;49.006;12.076;2022-12-13T03:24:59;20.33;;;10.68;;
7539;SDS011;3811;49.006;12.076;2022-12-13T03:27:26;21.30;;;11.55;;
7539;SDS011;3811;49.006;12.076;2022-12-13T03:29:53;19.65;;;11.38;;
7539;SDS011;3811;49.006;12.076;2022-12-13T03:32:22;27.75;;;14.35;;
7539;SDS011;3811;49.006;12.076;2022-12-13T03:34:49;23.67;;;11.88;;
7539;SDS011;3811;49.006;12.076;2022-12-13T03:37:18;25.67;;;13.32;;
7539;SDS011;3811;49.006;12.076;2022-12-13T03:39:45;26.25;;;12.70;;
7539;SDS011;3811;49.006;12.076;2022-12-13T03:42:12;29.95;;;13.45;;
7539;SDS011;3811;49.006;12.076;2022-12-13T03:44:40;24.35;;;11.88;;
7539;SDS011;3811;49.006;12.076;2022-12-13T03:47:07;28.25;;;11.98;;
7539;SDS011;3811;49.006;12.076;2022-12-13T03:49:35;22.08;;;12.70;;
7539;SDS011;3811;49.006;12.076;2022-12-13T03:52:02;26.70;;;11.45;;
7539;SDS011;3811;49.006;12.076;2022-12-13T03:54:30;23.42;;;12.25;;
7539;SDS011;3811;49.006;12.076;2022-12-13T03:56:58;23.67;;;11.75;;
7539;SDS011;3811;49.006;12.076;2022-12-13T03:59:25;24.27;;;12.88;;
7539;SDS011;3811;49.006;12.076;2022-12-13T04:01:53;28.33;;;13.18;;
7539;SDS011;3811;49.006;12.076;2022-12-13T04:04:20;26.45;;;12.57;;
7539;SDS011;3811;49.006;12.076;2022-12-13T04:06:47;24.77;;;10.90;;
7539;SDS011;3811;49.006;12.076;2022-12-13T04:09:14;22.42;;;11.75;;
7539;SDS011;3811;49.006;12.076;2022-12-13T04:11:43;24.35;;;12.50;;
7539;SDS011;3811;49.006;12.076;2022-12-13T04:14:28;27.45;;;12.07;;
7539;SDS011;3811;49.006;12.076;2022-12-13T04:16:55;21.70;;;11.35;;
7539;SDS011;3811;49.006;12.076;2022-12-13T04:19:22;20.92;;;11.68;;
7539;SDS011;3811;49.006;12.076;2022-12-13T04:21:50;21.42;;;11.43;;
7539;SDS011;3811;49.006;12.076;2022-12-13T04:24:18;20.95;;;11.57;;
7539;SDS011;3811;49.006;12.076;2022-12-13T04:26:47;21.40;;;10.30;;
7539;SDS011;3811;49.006;12.076;2022-12-13T04:29:14;18.73;;;10.30;;
7539;SDS011;3811;49.006;12.076;2022-12-13T04:31:41;17.95;;;10.23;;
7539;SDS011;3811;49.006;12.076;2022-12-13T04:34:09;15.07;;;8.88;;
7539;SDS011;3811;49.006;12.076;2022-12-13T04:36:36;14.23;;;8.35;;
7539;SDS011;3811;49.006;12.076;2022-12-13T04:39:03;16.58;;;8.40;;
7539;SDS011;3811;49.006;12.076;2022-12-13T04:41:33;15.10;;;8.52;;
7539;SDS011;3811;49.006;12.076;2022-12-13T04:44:03;27.67;;;9.90;;
7539;SDS011;3811;49.006;12.076;2022-12-13T04:46:30;16.77;;;9.10;;
7539;SDS011;3811;49.006;12.076;2022-12-13T04:48:57;17.77;;;7.93;;
7539;SDS011;3811;49.006;12.076;2022-12-13T04:51:25;10.88;;;7.63;;
7539;SDS011;3811;49.006;12.076;2022-12-13T04:53:53;14.63;;;8.00;;
7539;SDS011;3811;49.006;12.076;2022-12-13T04:56:20;18.92;;;8.43;;
7539;SDS011;3811;49.006;12.076;2022-12-13T04:58:48;15.30;;;8.63;;
7539;SDS011;3811;49.006;12.076;2022-12-13T05:01:16;13.63;;;8.15;;
7539;SDS011;3811;49.006;12.076;2022-12-13T05:03:43;15.02;;;8.15;;
7539;SDS011;3811;49.006;12.076;2022-12-13T05:06:11;16.92;;;8.95;;
7539;SDS011;3811;49.006;12.076;2022-12-13T05:08:39;19.42;;;10.00;;
7539;SDS011;3811;49.006;12.076;2022-12-13T05:11:07;21.27;;;10.45;;
7539;SDS011;3811;49.006;12.076;2022-12-13T05:13:34;18.77;;;9.85;;
7539;SDS011;3811;49.006;12.076;2022-12-13T05:16:02;16.65;;;9.73;;
7539;SDS011;3811;49.006;12.076;2022-12-13T05:18:32;17.30;;;9.93;;
7539;SDS011;3811;49.006;12.076;2022-12-13T05:21:01;13.82;;;8.77;;
7539;SDS011;3811;49.006;12.076;2022-12-13T05:23:28;18.17;;;9.20;;
7539;SDS011;3811;49.006;12.076;2022-12-13T05:25:56;18.95;;;9.63;;
7539;SDS011;3811;49.006;12.076;2022-12-13T05:28:24;16.25;;;9.65;;
7539;SDS011;3811;49.006;12.076;2022-12-13T05:30:52;14.65;;;7.97;;
7539;SDS011;3811;49.006;12.076;2022-12-13T05:33:23;16.20;;;9.10;;
7539;SDS011;3811;49.006;12.076;2022-12-13T05:35:52;13.75;;;8.85;;
7539;SDS011;3811;49.006;12.076;2022-12-13T05:38:20;16.17;;;9.10;;
7539;SDS011;3811;49.006;12.076;2022-12-13T05:40:47;17.50;;;8.70;;
7539;SDS011;3811;49.006;12.076;2022-12-13T05:43:15;16.40;;;9.07;;
7539;SDS011;3811;49.006;12.076;2022-12-13T05:45:42;18.17;;;10.13;;
7539;SDS011;3811;49.006;12.076;2022-12-13T05:48:10;20.20;;;9.85;;
7539;SDS011;3811;49.006;12.076;2022-12-13T05:50:37;17.05;;;10.10;;
7539;SDS011;3811;49.006;12.076;2022-12-13T05:53:06;16.70;;;9.45;;
7539;SDS011;3811;49.006;12.076;2022-12-13T05:55:33;20.65;;;9.55;;
7539;SDS011;3811;49.006;12.076;2022-12-13T05:58:01;18.77;;;9.02;;
7539;SDS011;3811;49.006;12.076;2022-12-13T06:00:28;18.95;;;9.07;;
7539;SDS011;3811;49.006;12.076;2022-12-13T06:02:55;13.65;;;8.98;;
7539;SDS011;3811;49.006;12.076;2022-12-13T06:05:23;12.27;;;8.98;;
7539;SDS011;3811;49.006;12.076;2022-12-13T06:07:52;15.88;;;8.75;;
7539;SDS011;3811;49.006;12.076;2022-12-13T06:10:22;16.02;;;9.95;;
7539;SDS011;3811;49.006;12.076;2022-12-13T06:12:49;13.98;;;9.23;;
7539;SDS011;3811;49.006;12.076;2022-12-13T06:15:16;14.40;;;8.18;;
7539;SDS011;3811;49.006;12.076;2022-12-13T06:17:44;16.55;;;8.55;;
7539;SDS011;3811;49.006;12.076;2022-12-13T06:20:11;16.73;;;9.70;;
7539;SDS011;3811;49.006;12.076;2022-12-13T06:22:38;16.88;;;9.68;;
7539;SDS011;3811;49.006;12.076;2022-12-13T06:25:06;12.75;;;8.40;;
7539;SDS011;3811;49.006;12.076;2022-12-13T06:27:34;14.80;;;9.55;;
7539;SDS011;3811;49.006;12.076;2022-12-13T06:30:02;21.02;;;12.10;;
7539;SDS011;3811;49.006;12.076;2022-12-13T06:32:29;23.38;;;9.95;;
7539;SDS011;3811;49.006;12.076;2022-12-13T06:34:57;22.08;;;9.82;;
7539;SDS011;3811;49.006;12.076;2022-12-13T06:37:25;22.73;;;11.40;;
7539;SDS011;3811;49.006;12.076;2022-12-13T06:39:52;22.00;;;11.18;;
7539;SDS011;3811;49.006;12.076;2022-12-13T06:42:23;18.55;;;10.63;;
7539;SDS011;3811;49.006;12.076;2022-12-13T06:44:51;23.85;;;11.25;;
7539;SDS011;3811;49.006;12.076;2022-12-13T06:47:19;17.13;;;8.75;;
7539;SDS011;3811;49.006;12.076;2022-12-13T06:49:46;16.25;;;8.27;;
7539;SDS011;3811;49.006;12.076;2022-12-13T06:55:00;17.30;;;9.45;;
7539;SDS011;3811;49.006;12.076;2022-12-13T06:57:27;17.45;;;9.00;;
7539;SDS011;3811;49.006;12.076;2022-12-13T06:59:56;15.95;;;9.50;;
7539;SDS011;3811;49.006;12.076;2022-12-13T07:02:24;18.05;;;9.23;;
7539;SDS011;3811;49.006;12.076;2022-12-13T07:04:52;14.52;;;9.00;;
7539;SDS011;3811;49.006;12.076;2022-12-13T07:07:19;17.40;;;8.73;;
7539;SDS011;3811;49.006;12.076;2022-12-13T07:09:47;15.15;;;8.43;;
7539;SDS011;3811;49.006;12.076;2022-12-13T07:12:14;16.20;;;8.35;;
7539;SDS011;3811;49.006;12.076;2022-12-13T07:14:42;19.55;;;9.25;;
7539;SDS011;3811;49.006;12.076;2022-12-13T07:17:11;23.88;;;8.80;;
7539;SDS011;3811;49.006;12.076;2022-12-13T07:19:38;19.83;;;10.48;;
7539;SDS011;3811;49.006;12.076;2022-12-13T07:22:06;19.08;;;10.38;;
7539;SDS011;3811;49.006;12.076;2022-12-13T07:24:35;17.10;;;9.98;;
7539;SDS011;3811;49.006;12.076;2022-12-13T07:27:02;16.15;;;8.75;;
7539;SDS011;3811;49.006;12.076;2022-12-13T07:29:30;14.27;;;9.80;;
7539;SDS011;3811;49.006;12.076;2022-12-13T07:31:57;16.23;;;9.43;;
7539;SDS011;3811;49.006;12.076;2022-12-13T07:34:26;21.05;;;9.73;;
7539;SDS011;3811;49.006;12.076;2022-12-13T07:36:53;15.07;;;9.50;;
7539;SDS011;3811;49.006;12.076;2022-12-13T07:39:22;16.27;;;9.27;;
7539;SDS011;3811;49.006;12.076;2022-12-13T07:41:51;22.38;;;10.30;;
7539;SDS011;3811;49.006;12.076;2022-12-13T07:44:20;16.92;;;9.18;;
7539;SDS011;3811;49.006;12.076;2022-12-13T07:46:47;15.73;;;9.57;;
7539;SDS011;3811;49.006;12.076;2022-12-13T07:49:15;21.83;;;9.95;;
7539;SDS011;3811;49.006;12.076;2022-12-13T07:51:43;17.80;;;9.75;;
7539;SDS011;3811;49.006;12.076;2022-12-13T07:54:11;17.92;;;9.15;;
7539;SDS011;3811;49.006;12.076;2022-12-13T07:56:47;19.63;;;10.60;;
7539;SDS011;3811;49.006;12.076;2022-12-13T07:59:15;20.10;;;10.18;;
7539;SDS011;3811;49.006;12.076;2022-12-13T08:01:42;20.63;;;9.68;;
7539;SDS011;3811;49.006;12.076;2022-12-13T08:04:09;17.75;;;10.45;;
7539;SDS011;3811;49.006;12.076;2022-12-13T08:06:37;17.65;;;9.82;;
7539;SDS011;3811;49.006;12.076;2022-12-13T08:09:06;18.13;;;10.15;;
7539;SDS011;3811;49.006;12.076;2022-12-13T08:11:33;19.70;;;9.93;;
7539;SDS011;3811;49.006;12.076;2022-12-13T08:14:00;18.80;;;8.93;;
7539;SDS011;3811;49.006;12.076;2022-12-13T08:16:28;15.38;;;10.15;;
7539;SDS011;3811;49.006;12.076;2022-12-13T08:18:55;14.50;;;9.05;;
7539;SDS011;3811;49.006;12.076;2022-12-13T08:21:22;17.02;;;8.85;;
7539;SDS011;3811;49.006;12.076;2022-12-13T08:23:50;13.73;;;8.18;;
7539;SDS011;3811;49.006;12.076;2022-12-13T08:26:18;15.50;;;8.25;;
7539;SDS011;3811;49.006;12.076;2022-12-13T08:28:45;15.07;;;8.80;;
7539;SDS011;3811;49.006;12.076;2022-12-13T08:31:13;15.30;;;9.93;;
7539;SDS011;3811;49.006;12.076;2022-12-13T08:33:40;16.38;;;8.80;;
7539;SDS011;3811;49.006;12.076;2022-12-13T08:36:10;18.50;;;7.95;;
7539;SDS011;3811;49.006;12.076;2022-12-13T08:38:39;13.43;;;8.75;;
7539;SDS011;3811;49.006;12.076;2022-12-13T08:41:07;12.52;;;8.55;;
7539;SDS011;3811;49.006;12.076;2022-12-13T08:43:36;13.40;;;7.57;;
7539;SDS011;3811;49.006;12.076;2022-12-13T08:46:03;12.07;;;8.27;;
7539;SDS011;3811;49.006;12.076;2022-12-13T08:48:30;14.57;;;8.83;;
7539;SDS011;3811;49.006;12.076;2022-12-13T08:50:58;13.17;;;8.30;;
7539;SDS011;3811;49.006;12.076;2022-12-13T08:53:26;11.97;;;8.13;;
7539;SDS011;3811;49.006;12.076;2022-12-13T08:55:53;13.97;;;9.27;;
7539;SDS011;3811;49.006;12.076;2022-12-13T08:58:20;13.50;;;7.80;;
7539;SDS011;3811;49.006;12.076;2022-12-13T09:00:49;11.83;;;8.13;;
7539;SDS011;3811;49.006;12.076;2022-12-13T09:03:16;12.07;;;8.33;;
7539;SDS011;3811;49.006;12.076;2022-12-13T09:05:43;11.50;;;7.73;;
7539;SDS011;3811;49.006;12.076;2022-12-13T09:08:10;14.17;;;8.60;;
7539;SDS011;3811;49.006;12.076;2022-12-13T09:10:38;12.60;;;9.10;;
7539;SDS011;3811;49.006;12.076;2022-12-13T09:13:05;15.93;;;10.10;;
7539;SDS011;3811;49.006;12.076;2022-12-13T09:15:32;22.03;;;12.17;;
7539;SDS011;3811;49.006;12.076;2022-12-13T09:18:01;17.20;;;10.00;;
7539;SDS011;3811;49.006;12.076;2022-12-13T09:20:29;12.17;;;8.97;;
7539;SDS011;3811;49.006;12.076;2022-12-13T09:22:56;12.93;;;9.13;;
7539;SDS011;3811;49.006;12.076;2022-12-13T09:25:24;12.57;;;8.40;;
7539;SDS011;3811;49.006;12.076;2022-12-13T09:27:51;11.83;;;8.77;;
7539;SDS011;3811;49.006;12.076;2022-12-13T09:30:19;12.90;;;8.63;;
7539;SDS011;3811;49.006;12.076;2022-12-13T09:32:46;11.80;;;7.50;;
7539;SDS011;3811;49.006;12.076;2022-12-13T09:35:16;21.57;;;15.00;;
7539;SDS011;3811;49.006;12.076;2022-12-13T09:37:43;11.47;;;9.67;;
7539;SDS011;3811;49.006;12.076;2022-12-13T09:40:10;12.60;;;9.03;;
7539;SDS011;3811;49.006;12.076;2022-12-13T09:42:44;17.67;;;10.30;;
7539;SDS011;3811;49.006;12.076;2022-12-13T09:45:16;12.20;;;8.67;;
7539;SDS011;3811;49.006;12.076;2022-12-13T09:47:43;13.90;;;9.50;;
7539;SDS011;3811;49.006;12.076;2022-12-13T09:50:12;13.33;;;8.97;;
7539;SDS011;3811;49.006;12.076;2022-12-13T09:52:45;13.10;;;8.90;;
7539;SDS011;3811;49.006;12.076;2022-12-13T09:55:17;11.93;;;9.80;;
7539;SDS011;3811;49.006;12.076;2022-12-13T09:57:47;15.13;;;9.70;;
7539;SDS011;3811;49.006;12.076;2022-12-13T10:00:16;12.20;;;9.03;;
7539;SDS011;3811;49.006;12.076;2022-12-13T10:02:45;11.10;;;8.93;;
7539;SDS011;3811;49.006;12.076;2022-12-13T10:05:16;11.07;;;9.13;;
7539;SDS011;3811;49.006;12.076;2022-12-13T10:07:47;14.43;;;9.87;;
7539;SDS011;3811;49.006;12.076;2022-12-13T10:10:15;12.30;;;8.93;;
7539;SDS011;3811;49.006;12.076;2022-12-13T10:12:42;17.13;;;9.83;;
7539;SDS011;3811;49.006;12.076;2022-12-13T10:15:15;13.70;;;9.17;;
7539;SDS011;3811;49.006;12.076;2022-12-13T10:17:45;10.87;;;8.23;;
7539;SDS011;3811;49.006;12.076;2022-12-13T10:20:16;10.40;;;8.07;;
7539;SDS011;3811;49.006;12.076;2022-12-13T10:22:44;15.80;;;9.17;;
7539;SDS011;3811;49.006;12.076;2022-12-13T10:25:12;14.53;;;8.30;;
7539;SDS011;3811;49.006;12.076;2022-12-13T10:27:41;15.20;;;7.30;;
7539;SDS011;3811;49.006;12.076;2022-12-13T10:30:10;10.80;;;7.27;;
7539;SDS011;3811;49.006;12.076;2022-12-13T10:32:49;11.00;;;7.90;;
7539;SDS011;3811;49.006;12.076;2022-12-13T10:35:25;11.63;;;7.40;;
7539;SDS011;3811;49.006;12.076;2022-12-13T10:37:53;13.33;;;8.13;;
7539;SDS011;3811;49.006;12.076;2022-12-13T10:40:22;11.10;;;8.20;;
7539;SDS011;3811;49.006;12.076;2022-12-13T10:43:12;17.67;;;8.87;;
7539;SDS011;3811;49.006;12.076;2022-12-13T10:45:41;9.47;;;7.03;;
7539;SDS011;3811;49.006;12.076;2022-12-13T10:48:16;10.50;;;7.83;;
7539;SDS011;3811;49.006;12.076;2022-12-13T10:50:56;9.70;;;7.90;;
7539;SDS011;3811;49.006;12.076;2022-12-13T10:53:27;10.33;;;7.00;;
7539;SDS011;3811;49.006;12.076;2022-12-13T10:55:56;10.27;;;7.43;;
7539;SDS011;3811;49.006;12.076;2022-12-13T10:58:32;9.60;;;7.60;;
7539;SDS011;3811;49.006;12.076;2022-12-13T11:01:07;11.07;;;7.67;;
7539;SDS011;3811;49.006;12.076;2022-12-13T11:03:34;12.10;;;7.07;;
7539;SDS011;3811;49.006;12.076;2022-12-13T11:06:04;8.93;;;7.17;;
7539;SDS011;3811;49.006;12.076;2022-12-13T11:08:38;10.27;;;5.87;;
7539;SDS011;3811;49.006;12.076;2022-12-13T11:11:05;9.50;;;6.80;;
7539;SDS011;3811;49.006;12.076;2022-12-13T11:13:35;7.40;;;5.70;;
7539;SDS011;3811;49.006;12.076;2022-12-13T11:16:04;8.70;;;6.70;;
7539;SDS011;3811;49.006;12.076;2022-12-13T11:18:46;8.37;;;5.90;;
7539;SDS011;3811;49.006;12.076;2022-12-13T11:21:21;8.23;;;7.03;;
7539;SDS011;3811;49.006;12.076;2022-12-13T11:23:50;9.97;;;6.53;;
7539;SDS011;3811;49.006;12.076;2022-12-13T11:26:30;9.83;;;6.40;;
7539;SDS011;3811;49.006;12.076;2022-12-13T11:29:07;9.63;;;6.03;;
7539;SDS011;3811;49.006;12.076;2022-12-13T11:31:46;10.20;;;6.37;;
7539;SDS011;3811;49.006;12.076;2022-12-13T11:34:22;10.53;;;6.77;;
7539;SDS011;3811;49.006;12.076;2022-12-13T11:37:03;12.00;;;6.63;;
7539;SDS011;3811;49.006;12.076;2022-12-13T11:39:42;7.57;;;6.40;;
7539;SDS011;3811;49.006;12.076;2022-12-13T11:42:15;8.77;;;6.13;;
7539;SDS011;3811;49.006;12.076;2022-12-13T11:44:50;8.00;;;6.10;;
7539;SDS011;3811;49.006;12.076;2022-12-13T11:47:22;9.40;;;6.47;;
7539;SDS011;3811;49.006;12.076;2022-12-13T11:49:52;9.27;;;6.40;;
7539;SDS011;3811;49.006;12.076;2022-12-13T11:52:24;9.20;;;6.90;;
7539;SDS011;3811;49.006;12.076;2022-12-13T11:54:53;12.20;;;6.23;;
7539;SDS011;3811;49.006;12.076;2022-12-13T11:57:29;11.20;;;6.93;;
7539;SDS011;3811;49.006;12.076;2022-12-13T12:00:02;7.90;;;5.93;;
7539;SDS011;3811;49.006;12.076;2022-12-13T12:02:40;9.97;;;6.87;;
7539;SDS011;3811;49.006;12.076;2022-12-13T12:05:16;7.87;;;5.67;;
7539;SDS011;3811;49.006;12.076;2022-12-13T12:07:53;7.30;;;5.20;;
7539;SDS011;3811;49.006;12.076;2022-12-13T12:10:23;7.40;;;5.03;;
7539;SDS011;3811;49.006;12.076;2022-12-13T12:12:55;11.47;;;5.50;;
7539;SDS011;3811;49.006;12.076;2022-12-13T12:15:25;8.23;;;5.13;;
7539;SDS011;3811;49.006;12.076;2022-12-13T12:17:54;8.53;;;5.63;;
7539;SDS011;3811;49.006;12.076;2022-12-13T12:20:22;7.57;;;5.57;;
7539;SDS011;3811;49.006;12.076;2022-12-13T12:22:56;10.50;;;7.07;;
7539;SDS011;3811;49.006;12.076;2022-12-13T12:25:29;9.57;;;6.50;;
7539;SDS011;3811;49.006;12.076;2022-12-13T12:28:03;14.40;;;7.40;;
7539;SDS011;3811;49.006;12.076;2022-12-13T12:30:44;12.30;;;7.13;;
7539;SDS011;3811;49.006;12.076;2022-12-13T12:33:22;13.17;;;7.70;;
7539;SDS011;3811;49.006;12.076;2022-12-13T12:39:01;9.50;;;5.93;;
7539;SDS011;3811;49.006;12.076;2022-12-13T12:41:51;8.03;;;5.50;;
7539;SDS011;3811;49.006;12.076;2022-12-13T12:44:33;6.17;;;4.73;;
7539;SDS011;3811;49.006;12.076;2022-12-13T12:47:18;10.43;;;5.50;;
7539;SDS011;3811;49.006;12.076;2022-12-13T12:49:56;10.47;;;5.47;;
7539;SDS011;3811;49.006;12.076;2022-12-13T12:52:30;8.30;;;5.33;;
7539;SDS011;3811;49.006;12.076;2022-12-13T12:55:06;8.13;;;4.77;;
7539;SDS011;3811;49.006;12.076;2022-12-13T12:57:43;7.80;;;5.47;;
7539;SDS011;3811;49.006;12.076;2022-12-13T13:00:14;6.30;;;4.57;;
7539;SDS011;3811;49.006;12.076;2022-12-13T13:02:45;7.33;;;5.00;;
7539;SDS011;3811;49.006;12.076;2022-12-13T13:05:15;9.03;;;4.87;;
7539;SDS011;3811;49.006;12.076;2022-12-13T13:07:43;6.53;;;4.10;;
7539;SDS011;3811;49.006;12.076;2022-12-13T13:10:13;6.30;;;4.53;;
7539;SDS011;3811;49.006;12.076;2022-12-13T13:12:41;7.20;;;5.27;;
7539;SDS011;3811;49.006;12.076;2022-12-13T13:17:55;8.77;;;5.23;;
7539;SDS011;3811;49.006;12.076;2022-12-13T13:20:23;11.40;;;6.10;;
7539;SDS011;3811;49.006;12.076;2022-12-13T13:22:51;7.90;;;5.30;;
7539;SDS011;3811;49.006;12.076;2022-12-13T13:25:21;7.37;;;5.90;;
7539;SDS011;3811;49.006;12.076;2022-12-13T13:28:00;9.70;;;5.13;;
7539;SDS011;3811;49.006;12.076;2022-12-13T13:30:30;8.83;;;6.03;;
7539;SDS011;3811;49.006;12.076;2022-12-13T13:32:58;6.17;;;4.77;;
7539;SDS011;3811;49.006;12.076;2022-12-13T13:41:40;7.27;;;5.03;;
7539;SDS011;3811;49.006;12.076;2022-12-13T13:44:31;8.93;;;5.13;;
7539;SDS011;3811;49.006;12.076;2022-12-13T13:47:08;7.13;;;5.07;;
7539;SDS011;3811;49.006;12.076;2022-12-13T13:49:37;10.33;;;5.33;;
7539;SDS011;3811;49.006;12.076;2022-12-13T13:52:16;6.67;;;4.60;;
7539;SDS011;3811;49.006;12.076;2022-12-13T13:54:59;7.10;;;4.70;;
7539;SDS011;3811;49.006;12.076;2022-12-13T13:58:10;7.40;;;5.30;;
7539;SDS011;3811;49.006;12.076;2022-12-13T14:06:58;6.33;;;4.90;;
7539;SDS011;3811;49.006;12.076;2022-12-13T14:21:26;7.57;;;4.60;;
7539;SDS011;3811;49.006;12.076;2022-12-13T14:23:57;8.67;;;4.20;;
7539;SDS011;3811;49.006;12.076;2022-12-13T14:26:30;7.97;;;4.90;;
7539;SDS011;3811;49.006;12.076;2022-12-13T14:29:00;7.17;;;4.83;;
7539;SDS011;3811;49.006;12.076;2022-12-13T14:31:30;7.50;;;5.27;;
7539;SDS011;3811;49.006;12.076;2022-12-13T14:34:02;11.00;;;5.60;;
7539;SDS011;3811;49.006;12.076;2022-12-13T14:36:33;19.10;;;5.50;;
7539;SDS011;3811;49.006;12.076;2022-12-13T14:39:04;18.17;;;6.57;;
7539;SDS011;3811;49.006;12.076;2022-12-13T14:41:32;13.53;;;6.10;;
7539;SDS011;3811;49.006;12.076;2022-12-13T14:44:15;8.17;;;5.90;;
7539;SDS011;3811;49.006;12.076;2022-12-13T14:46:47;10.32;;;5.63;;
7539;SDS011;3811;49.006;12.076;2022-12-13T14:49:14;8.37;;;5.60;;
7539;SDS011;3811;49.006;12.076;2022-12-13T14:51:43;7.83;;;5.10;;
7539;SDS011;3811;49.006;12.076;2022-12-13T14:54:16;7.80;;;4.90;;
7539;SDS011;3811;49.006;12.076;2022-12-13T14:59:29;8.63;;;5.70;;
7539;SDS011;3811;49.006;12.076;2022-12-13T15:01:58;12.18;;;6.25;;
7539;SDS011;3811;49.006;12.076;2022-12-13T15:04:28;9.32;;;6.15;;
7539;SDS011;3811;49.006;12.076;2022-12-13T15:06:59;15.07;;;9.68;;
7539;SDS011;3811;49.006;12.076;2022-12-13T15:09:33;16.80;;;10.00;;
7539;SDS011;3811;49.006;12.076;2022-12-13T15:12:00;15.27;;;10.23;;
7539;SDS011;3811;49.006;12.076;2022-12-13T15:14:33;17.63;;;10.52;;
7539;SDS011;3811;49.006;12.076;2022-12-13T15:17:03;14.73;;;10.23;;
7539;SDS011;3811;49.006;12.076;2022-12-13T15:19:32;14.95;;;9.48;;
7539;SDS011;3811;49.006;12.076;2022-12-13T15:22:12;13.73;;;8.27;;
7539;SDS011;3811;49.006;12.076;2022-12-13T15:24:43;13.43;;;7.00;;
7539;SDS011;3811;49.006;12.076;2022-12-13T15:27:16;10.38;;;6.85;;
7539;SDS011;3811;49.006;12.076;2022-12-13T15:29:45;10.63;;;6.88;;
7539;SDS011;3811;49.006;12.076;2022-12-13T15:32:14;14.98;;;7.70;;
7539;SDS011;3811;49.006;12.076;2022-12-13T15:34:43;10.65;;;6.93;;
7539;SDS011;3811;49.006;12.076;2022-12-13T15:37:17;11.05;;;6.82;;
7539;SDS011;3811;49.006;12.076;2022-12-13T15:39:48;10.73;;;6.57;;
7539;SDS011;3811;49.006;12.076;2022-12-13T15:42:16;13.60;;;6.00;;
7539;SDS011;3811;49.006;12.076;2022-12-13T15:44:47;8.43;;;5.70;;
7539;SDS011;3811;49.006;12.076;2022-12-13T15:47:18;12.57;;;6.88;;